createdAt,value
2023-04-05T00:01:12.591Z,0.41
2023-04-05T00:03:43.446Z,0.30
2023-04-05T00:06:13.440Z,0.32
2023-04-05T00:08:44.057Z,0.14
2023-04-05T00:11:12.000Z,0.05
2023-04-05T00:13:39.983Z,0.07
2023-04-05T00:16:08.075Z,0.09
2023-04-05T00:18:38.820Z,0.07
2023-04-05T00:21:06.932Z,0.14
2023-04-05T00:23:38.767Z,0.20
2023-04-05T00:26:07.595Z,0.28
2023-04-05T00:28:36.263Z,0.26
2023-04-05T00:31:05.824Z,0.23
2023-04-05T00:33:33.876Z,0.19
2023-04-05T00:36:11.870Z,0.27
2023-04-05T00:38:41.014Z,0.24
2023-04-05T00:41:09.887Z,0.24
2023-04-05T00:43:38.112Z,0.15
2023-04-05T00:46:07.324Z,0.16
2023-04-05T00:48:36.187Z,0.20
2023-04-05T00:51:04.606Z,0.04
2023-04-05T00:53:32.738Z,0.19
2023-04-05T00:56:01.617Z,0.18
2023-04-05T00:58:29.979Z,0.17
2023-04-05T01:01:09.761Z,0.19
2023-04-05T01:03:39.003Z,0.13
2023-04-05T01:06:12.977Z,0.06
2023-04-05T01:08:52.580Z,0.12
2023-04-05T01:11:22.316Z,0.08
2023-04-05T01:13:50.330Z,-0.09
2023-04-05T01:16:18.497Z,-0.08
2023-04-05T01:18:47.469Z,-0.13
2023-04-05T01:21:29.783Z,0.00
2023-04-05T01:24:15.051Z,0.00
2023-04-05T01:27:05.863Z,-0.07
2023-04-05T01:30:11.076Z,-0.16
2023-04-05T01:32:51.553Z,-0.16
2023-04-05T01:35:30.356Z,-0.05
2023-04-05T01:38:02.741Z,-0.06
2023-04-05T01:40:32.603Z,-0.02
2023-04-05T01:43:03.797Z,0.01
2023-04-05T01:45:32.170Z,-0.05
2023-04-05T01:48:01.338Z,0.04
2023-04-05T01:50:29.372Z,0.01
2023-04-05T01:52:57.560Z,0.04
2023-04-05T01:55:25.570Z,0.03
2023-04-05T01:57:56.110Z,0.08
2023-04-05T02:00:24.724Z,0.09
2023-04-05T02:02:53.231Z,-0.02
2023-04-05T02:05:21.279Z,0.07
2023-04-05T02:07:49.211Z,0.19
2023-04-05T02:10:18.820Z,0.24
2023-04-05T02:12:46.794Z,0.33
2023-04-05T02:15:14.743Z,0.31
2023-04-05T02:17:46.390Z,0.44
2023-04-05T02:20:14.997Z,0.45
2023-04-05T02:22:45.579Z,0.56
2023-04-05T02:25:13.904Z,0.41
2023-04-05T02:27:42.114Z,0.38
2023-04-05T02:30:10.791Z,0.45
2023-04-05T02:32:38.748Z,0.52
2023-04-05T02:35:07.242Z,0.49
2023-04-05T02:37:35.842Z,0.53
2023-04-05T02:40:09.017Z,0.33
2023-04-05T02:42:40.187Z,0.37
2023-04-05T02:45:08.690Z,0.42
2023-04-05T02:47:36.994Z,0.48
2023-04-05T02:50:05.578Z,0.57
2023-04-05T02:56:16.481Z,0.52
2023-04-05T02:58:49.624Z,0.47
2023-04-05T03:01:24.139Z,0.58
2023-04-05T03:03:52.525Z,0.58
2023-04-05T03:06:22.737Z,0.54
2023-04-05T03:08:52.613Z,0.51
2023-04-05T03:11:24.736Z,0.49
2023-04-05T03:13:57.819Z,0.53
2023-04-05T03:16:40.149Z,0.55
2023-04-05T03:19:32.510Z,0.70
2023-04-05T03:22:10.888Z,0.81
2023-04-05T03:24:42.835Z,0.79
2023-04-05T03:27:15.395Z,0.85
2023-04-05T03:29:58.230Z,0.87
2023-04-05T03:32:26.834Z,0.76
2023-04-05T03:35:13.405Z,0.78
2023-04-05T03:37:46.215Z,0.90
2023-04-05T03:40:14.820Z,0.90
2023-04-05T03:42:53.275Z,0.94
2023-04-05T03:45:24.360Z,0.92
2023-04-05T03:47:55.431Z,1.00
2023-04-05T03:50:24.060Z,0.96
2023-04-05T03:52:53.458Z,0.94
2023-04-05T03:55:22.160Z,0.97
2023-04-05T03:57:53.014Z,0.96
2023-04-05T04:00:29.979Z,0.88
2023-04-05T04:03:21.193Z,0.88
2023-04-05T04:05:52.665Z,0.88
2023-04-05T04:08:21.593Z,0.79
2023-04-05T04:10:51.202Z,0.82
2023-04-05T04:13:28.390Z,0.72
2023-04-05T04:16:13.393Z,0.71
2023-04-05T04:18:57.269Z,0.74
2023-04-05T04:21:32.842Z,0.68
2023-04-05T04:24:36.123Z,0.80
2023-04-05T04:27:14.216Z,0.89
2023-04-05T04:30:13.081Z,0.93
2023-04-05T04:33:00.202Z,0.89
2023-04-05T04:35:40.878Z,1.05
2023-04-05T04:38:21.983Z,1.12
2023-04-05T04:41:10.224Z,1.10
2023-04-05T04:43:48.206Z,1.02
2023-04-05T04:46:30.885Z,1.10
2023-04-05T04:49:21.882Z,1.01
2023-04-05T04:51:49.942Z,1.12
2023-04-05T04:54:21.195Z,1.22
2023-04-05T04:56:49.241Z,1.13
2023-04-05T04:59:17.367Z,1.25
2023-04-05T05:01:46.177Z,1.30
2023-04-05T05:04:14.227Z,1.33
2023-04-05T05:06:43.340Z,1.33
2023-04-05T05:09:11.387Z,1.25
2023-04-05T05:11:48.833Z,1.30
2023-04-05T05:14:16.861Z,1.44
2023-04-05T05:16:44.913Z,1.33
2023-04-05T05:19:12.950Z,1.11
2023-04-05T05:21:47.347Z,1.21
2023-04-05T05:24:15.362Z,1.25
2023-04-05T05:26:44.411Z,1.18
2023-04-05T05:29:12.405Z,1.39
2023-04-05T05:31:44.403Z,1.70
2023-04-05T05:34:13.539Z,1.89
2023-04-05T05:36:48.236Z,1.93
2023-04-05T05:39:16.194Z,1.98
2023-04-05T05:41:45.146Z,1.95
2023-04-05T05:44:14.171Z,2.13
2023-04-05T05:46:42.104Z,2.19
2023-04-05T05:49:10.174Z,2.34
2023-04-05T05:51:39.744Z,2.29
2023-04-05T05:54:11.812Z,2.58
2023-04-05T05:56:40.239Z,2.69
2023-04-05T05:59:08.162Z,2.72
2023-04-05T06:01:42.927Z,2.82
2023-04-05T06:04:11.100Z,2.97
2023-04-05T06:06:39.380Z,3.13
2023-04-05T06:09:07.439Z,3.01
2023-04-05T06:11:37.132Z,2.99
2023-04-05T06:14:09.052Z,3.08
2023-04-05T06:16:37.480Z,3.25
2023-04-05T06:19:05.522Z,3.32
2023-04-05T06:21:33.626Z,3.41
2023-04-05T06:24:01.831Z,3.54
2023-04-05T06:26:31.852Z,3.52
2023-04-05T06:28:59.813Z,3.22
2023-04-05T06:31:32.241Z,3.31
2023-04-05T06:34:01.352Z,3.67
2023-04-05T06:36:34.371Z,4.47
2023-04-05T06:39:02.742Z,5.64
2023-04-05T06:41:31.049Z,6.74
2023-04-05T06:43:59.395Z,8.03
2023-04-05T06:46:29.396Z,9.14
2023-04-05T06:48:59.584Z,9.05
2023-04-05T06:51:29.874Z,8.03
2023-04-05T06:53:58.463Z,7.49
2023-04-05T06:56:27.260Z,6.49
2023-04-05T06:58:56.011Z,5.74
2023-04-05T07:01:25.270Z,5.52
2023-04-05T07:03:53.977Z,5.40
2023-04-05T07:06:24.248Z,5.39
2023-04-05T07:08:52.879Z,4.68
2023-04-05T07:11:23.549Z,4.17
2023-04-05T07:13:51.469Z,3.81
2023-04-05T07:16:25.706Z,3.93
2023-04-05T07:18:56.011Z,3.98
2023-04-05T07:21:24.424Z,3.94
2023-04-05T07:23:53.953Z,3.63
2023-04-05T07:26:22.826Z,3.63
2023-04-05T07:28:50.850Z,3.70
2023-04-05T07:31:18.783Z,3.68
2023-04-05T07:33:49.927Z,3.51
2023-04-05T07:36:18.360Z,3.43
2023-04-05T07:38:47.490Z,3.79
2023-04-05T07:41:18.799Z,3.71
2023-04-05T07:43:50.277Z,3.67
2023-04-05T07:46:19.899Z,4.00
2023-04-05T07:48:48.926Z,4.02
2023-04-05T07:51:17.190Z,4.38
2023-04-05T07:53:45.267Z,4.78
2023-04-05T07:56:16.599Z,4.69
2023-04-05T07:58:45.215Z,4.97
2023-04-05T08:01:13.517Z,4.84
2023-04-05T08:03:41.616Z,4.81
2023-04-05T08:06:11.750Z,4.70
2023-04-05T08:08:41.958Z,4.50
2023-04-05T08:11:10.208Z,4.58
2023-04-05T08:13:41.901Z,4.79
2023-04-05T08:16:11.605Z,4.75
2023-04-05T08:18:39.601Z,4.88
2023-04-05T08:21:07.541Z,4.65
2023-04-05T08:23:35.855Z,5.06
2023-04-05T08:26:04.404Z,4.87
2023-04-05T08:28:32.785Z,4.79
2023-04-05T08:31:02.080Z,4.41
2023-04-05T08:33:31.372Z,4.76
2023-04-05T08:36:07.983Z,4.87
2023-04-05T08:38:36.199Z,4.95
2023-04-05T08:41:21.988Z,4.81
2023-04-05T08:44:03.834Z,4.79
2023-04-05T08:46:36.278Z,4.96
2023-04-05T08:49:09.041Z,5.10
2023-04-05T08:51:39.574Z,4.87
2023-04-05T08:54:08.086Z,4.85
2023-04-05T08:56:37.341Z,4.75
2023-04-05T08:59:11.466Z,4.93
2023-04-05T09:01:44.391Z,4.75
2023-04-05T09:04:22.366Z,4.85
2023-04-05T09:06:52.588Z,5.00
2023-04-05T09:09:21.891Z,5.06
2023-04-05T09:11:53.448Z,5.02
2023-04-05T09:14:22.182Z,5.24
2023-04-05T09:16:50.364Z,5.06
2023-04-05T09:19:18.651Z,4.84
2023-04-05T09:22:03.222Z,5.03
2023-04-05T09:24:42.359Z,5.02
2023-04-05T09:27:12.403Z,5.07
2023-04-05T09:29:42.912Z,5.37
2023-04-05T09:32:12.426Z,5.71
2023-04-05T09:34:42.072Z,6.14
2023-04-05T09:37:22.239Z,6.10
2023-04-05T09:40:02.033Z,6.10
2023-04-05T09:42:44.049Z,5.84
2023-04-05T09:45:12.682Z,5.24
2023-04-05T09:47:58.135Z,5.44
2023-04-05T09:50:26.606Z,5.62
2023-04-05T09:53:16.736Z,5.68
2023-04-05T09:55:47.414Z,5.50
2023-04-05T09:58:22.483Z,5.53
2023-04-05T10:01:03.342Z,5.16
2023-04-05T10:03:48.565Z,4.85
2023-04-05T10:06:17.400Z,4.76
2023-04-05T10:08:47.816Z,4.65
2023-04-05T10:11:19.676Z,4.48
2023-04-05T10:13:50.710Z,4.44
2023-04-05T10:16:22.675Z,4.30
2023-04-05T10:18:53.109Z,4.53
2023-04-05T10:21:30.000Z,4.41
2023-04-05T10:24:16.790Z,4.76
2023-04-05T10:27:18.099Z,4.55
2023-04-05T10:30:09.321Z,4.28
2023-04-05T10:32:58.657Z,4.58
2023-04-05T10:35:34.631Z,4.80
2023-04-05T10:38:02.753Z,4.65
2023-04-05T10:40:33.410Z,4.61
2023-04-05T10:43:04.524Z,4.55
2023-04-05T10:45:35.782Z,4.57
2023-04-05T10:48:19.310Z,4.41
2023-04-05T10:50:48.866Z,4.24
2023-04-05T10:53:19.589Z,4.01
2023-04-05T10:55:50.031Z,4.12
2023-04-05T10:58:19.531Z,4.28
2023-04-05T11:00:49.643Z,4.28
2023-04-05T11:03:43.054Z,4.33
2023-04-05T11:06:26.286Z,4.37
2023-04-05T11:08:59.360Z,4.53
2023-04-05T11:11:27.932Z,4.43
2023-04-05T11:13:57.305Z,4.56
2023-04-05T11:16:40.282Z,4.33
2023-04-05T11:19:08.405Z,4.22
2023-04-05T11:21:36.901Z,4.56
2023-04-05T11:24:08.350Z,4.56
2023-04-05T11:26:48.280Z,4.25
2023-04-05T11:29:16.510Z,4.38
2023-04-05T11:32:06.553Z,4.62
2023-04-05T11:34:37.988Z,4.62
2023-04-05T11:37:06.102Z,4.58
2023-04-05T11:39:34.065Z,4.59
2023-04-05T11:42:16.317Z,4.77
2023-04-05T11:44:49.893Z,4.74
2023-04-05T11:47:18.741Z,4.85
2023-04-05T11:49:50.636Z,4.85
2023-04-05T11:52:20.844Z,4.98
2023-04-05T11:54:49.489Z,5.17
2023-04-05T11:57:24.709Z,5.01
2023-04-05T11:59:53.796Z,4.81
2023-04-05T12:02:22.692Z,4.88
2023-04-05T12:04:58.232Z,4.56
2023-04-05T12:07:29.706Z,4.33
2023-04-05T12:10:10.164Z,4.49
2023-04-05T12:12:40.784Z,4.37
2023-04-05T12:15:12.203Z,4.16
2023-04-05T12:17:51.267Z,3.92
2023-04-05T12:20:27.069Z,4.08
2023-04-05T12:22:56.785Z,4.06
2023-04-05T12:25:26.457Z,3.99
2023-04-05T12:27:54.686Z,4.09
2023-04-05T12:30:24.377Z,4.14
2023-04-05T12:32:55.056Z,4.16
2023-04-05T12:35:25.290Z,4.17
2023-04-05T12:37:53.305Z,3.99
2023-04-05T12:40:23.523Z,4.12
2023-04-05T12:42:52.755Z,4.25
2023-04-05T12:45:24.186Z,4.34
2023-04-05T12:48:01.303Z,4.29
2023-04-05T12:50:31.214Z,4.30
2023-04-05T12:53:08.848Z,4.37
2023-04-05T12:55:46.086Z,4.32
2023-04-05T12:58:14.929Z,4.47
2023-04-05T13:00:42.963Z,4.74
2023-04-05T13:03:20.888Z,4.56
2023-04-05T13:05:49.591Z,4.46
2023-04-05T13:08:21.232Z,4.49
2023-04-05T13:10:50.448Z,4.64
2023-04-05T13:13:21.325Z,4.57
2023-04-05T13:15:51.976Z,4.56
2023-04-05T13:18:20.818Z,4.51
2023-04-05T13:20:48.819Z,4.63
2023-04-05T13:23:16.857Z,4.60
2023-04-05T13:25:47.706Z,4.58
2023-04-05T13:28:16.266Z,4.48
2023-04-05T13:30:44.365Z,4.55
2023-04-05T13:33:12.908Z,4.44
2023-04-05T13:35:41.659Z,4.44
2023-04-05T13:38:09.891Z,4.54
2023-04-05T13:40:37.858Z,4.67
2023-04-05T13:43:06.225Z,4.53
2023-04-05T13:45:34.831Z,4.58
2023-04-05T13:48:03.617Z,4.44
2023-04-05T13:50:31.622Z,4.36
2023-04-05T13:52:59.662Z,4.56
2023-04-05T13:55:27.589Z,3.96
2023-04-05T13:57:55.579Z,3.73
2023-04-05T14:00:24.272Z,3.97
2023-04-05T14:02:55.555Z,4.20
2023-04-05T14:05:24.126Z,4.42
2023-04-05T14:07:52.109Z,4.58
2023-04-05T14:10:21.868Z,4.61
2023-04-05T14:12:50.217Z,4.75
2023-04-05T14:15:18.386Z,4.58
2023-04-05T14:17:46.398Z,4.63
2023-04-05T14:20:14.540Z,4.74
2023-04-05T14:22:42.670Z,4.61
2023-04-05T14:25:11.299Z,4.52
2023-04-05T14:27:42.733Z,4.49
2023-04-05T14:30:12.760Z,4.70
2023-04-05T14:32:42.076Z,4.63
2023-04-05T14:35:10.481Z,4.68
2023-04-05T14:37:38.508Z,4.63
2023-04-05T14:40:07.489Z,4.53
2023-04-05T14:42:47.633Z,4.47
2023-04-05T14:45:19.062Z,4.21
2023-04-05T14:47:47.601Z,4.01
2023-04-05T14:50:16.174Z,4.24
2023-04-05T14:52:46.041Z,4.30
2023-04-05T14:55:14.973Z,4.23
2023-04-05T14:57:43.854Z,4.24
2023-04-05T15:00:13.948Z,4.15
2023-04-05T15:02:42.584Z,3.94
2023-04-05T15:05:11.729Z,3.78
2023-04-05T15:07:40.113Z,3.71
2023-04-05T15:10:09.103Z,3.44
2023-04-05T15:12:37.711Z,3.27
2023-04-05T15:15:07.087Z,3.43
2023-04-05T15:17:35.972Z,3.58
2023-04-05T15:20:05.092Z,3.64
2023-04-05T15:22:34.320Z,3.43
2023-04-05T15:25:02.919Z,3.48
2023-04-05T15:27:31.579Z,3.43
2023-04-05T15:30:00.800Z,3.29
2023-04-05T15:32:29.153Z,3.17
2023-04-05T15:34:58.314Z,3.21
2023-04-05T15:37:26.333Z,3.10
2023-04-05T15:39:54.839Z,2.99
2023-04-05T15:42:23.527Z,2.90
2023-04-05T15:44:52.237Z,2.85
2023-04-05T15:47:20.800Z,2.87
2023-04-05T15:49:49.488Z,2.89
2023-04-05T15:52:18.421Z,2.72
2023-04-05T15:54:48.121Z,2.78
2023-04-05T15:57:16.686Z,2.63
2023-04-05T15:59:45.378Z,2.75
2023-04-05T16:02:14.121Z,2.65
2023-04-05T16:04:42.911Z,2.63
2023-04-05T16:07:11.546Z,2.56
2023-04-05T16:09:40.188Z,2.58
2023-04-05T16:12:08.699Z,2.62
2023-04-05T16:14:37.529Z,2.69
2023-04-05T16:17:06.358Z,2.77
2023-04-05T16:19:37.420Z,2.65
2023-04-05T16:22:06.677Z,2.76
2023-04-05T16:24:37.343Z,2.69
2023-04-05T16:27:06.704Z,2.76
2023-04-05T16:29:34.926Z,2.79
2023-04-05T16:32:04.004Z,2.69
2023-04-05T16:34:32.646Z,2.75
2023-04-05T16:37:01.388Z,2.71
2023-04-05T16:39:30.211Z,2.65
2023-04-05T16:41:58.800Z,2.69
2023-04-05T16:44:27.307Z,2.42
2023-04-05T16:46:56.954Z,2.68
2023-04-05T16:49:25.557Z,2.74
2023-04-05T16:51:54.306Z,2.57
2023-04-05T16:54:23.056Z,2.33
2023-04-05T16:56:51.744Z,2.42
2023-04-05T16:59:20.323Z,2.38
2023-04-05T17:01:49.047Z,2.40
2023-04-05T17:04:18.027Z,2.25
2023-04-05T17:06:46.655Z,2.21
2023-04-05T17:09:15.603Z,2.28
2023-04-05T17:11:43.951Z,2.13
2023-04-05T17:14:12.722Z,2.12
2023-04-05T17:16:41.330Z,2.06
2023-04-05T17:19:10.072Z,1.91
2023-04-05T17:21:38.678Z,1.90
2023-04-05T17:24:07.827Z,1.79
2023-04-05T17:26:36.356Z,1.73
2023-04-05T17:29:05.064Z,1.69
2023-04-05T17:31:34.140Z,1.68
2023-04-05T17:34:03.051Z,1.70
2023-04-05T17:36:32.014Z,1.71
2023-04-05T17:39:00.732Z,1.71
2023-04-05T17:41:29.141Z,1.60
2023-04-05T17:43:57.760Z,1.66
2023-04-05T17:46:40.111Z,1.60
2023-04-05T17:49:09.876Z,1.62
2023-04-05T17:51:38.211Z,1.74
2023-04-05T17:54:07.185Z,1.70
2023-04-05T17:56:35.710Z,1.90
2023-04-05T17:59:04.840Z,1.92
2023-04-05T18:01:33.560Z,1.91
2023-04-05T18:04:02.486Z,1.91
2023-04-05T18:06:31.543Z,1.86
2023-04-05T18:09:00.509Z,1.81
2023-04-05T18:11:29.022Z,1.79
2023-04-05T18:13:58.419Z,1.86
2023-04-05T18:16:31.756Z,1.96
2023-04-05T18:19:01.535Z,1.94
2023-04-05T18:21:30.378Z,1.99
2023-04-05T18:23:59.249Z,1.93
2023-04-05T18:26:28.783Z,1.87
2023-04-05T18:29:00.536Z,1.92
2023-04-05T18:31:29.833Z,1.84
2023-04-05T18:34:01.113Z,1.75
2023-04-05T18:36:29.795Z,1.73
2023-04-05T18:39:00.950Z,1.79
2023-04-05T18:41:30.475Z,1.80
2023-04-05T18:43:59.554Z,1.64
2023-04-05T18:46:28.506Z,1.65
2023-04-05T18:48:58.370Z,1.65
2023-04-05T18:51:27.486Z,1.53
2023-04-05T18:53:55.906Z,1.46
2023-04-05T18:56:24.664Z,1.58
2023-04-05T18:58:53.129Z,1.56
2023-04-05T19:01:22.620Z,1.58
2023-04-05T19:03:51.397Z,1.68
2023-04-05T19:06:20.079Z,1.71
2023-04-05T19:08:48.988Z,1.60
2023-04-05T19:11:18.890Z,1.56
2023-04-05T19:13:48.026Z,1.66
2023-04-05T19:16:17.871Z,1.52
2023-04-05T19:18:46.800Z,1.69
2023-04-05T19:21:15.417Z,1.63
2023-04-05T19:23:44.085Z,1.70
2023-04-05T19:26:12.656Z,1.69
2023-04-05T19:28:41.534Z,1.47
2023-04-05T19:31:11.221Z,1.61
2023-04-05T19:33:39.555Z,1.41
2023-04-05T19:36:07.723Z,1.57
2023-04-05T19:38:36.591Z,1.57
2023-04-05T19:41:05.132Z,1.61
2023-04-05T19:43:37.130Z,1.73
2023-04-05T19:46:09.200Z,1.73
2023-04-05T19:48:37.964Z,1.75
2023-04-05T19:51:11.146Z,1.71
2023-04-05T19:53:42.223Z,1.60
2023-04-05T19:56:14.771Z,1.63
2023-04-05T19:58:44.021Z,1.50
2023-04-05T20:01:22.934Z,1.38
2023-04-05T20:03:52.004Z,1.44
2023-04-05T20:06:23.451Z,1.39
2023-04-05T20:08:52.224Z,1.35
2023-04-05T20:11:22.441Z,1.38
2023-04-05T20:13:52.149Z,1.32
2023-04-05T20:16:29.618Z,1.29
2023-04-05T20:19:01.800Z,1.30
2023-04-05T20:21:30.281Z,1.35
2023-04-05T20:23:59.736Z,1.42
2023-04-05T20:26:32.128Z,1.40
2023-04-05T20:29:02.704Z,1.43
2023-04-05T20:34:14.263Z,1.29
2023-04-05T20:37:00.378Z,1.37
2023-04-05T20:39:30.034Z,1.43
2023-04-05T20:41:59.811Z,1.30
2023-04-05T20:44:28.264Z,1.31
2023-04-05T20:46:58.307Z,1.39
2023-04-05T20:49:30.040Z,1.37
2023-04-05T20:51:58.264Z,1.30
2023-04-05T20:54:26.383Z,1.11
2023-04-05T20:56:54.664Z,1.16
2023-04-05T20:59:22.870Z,1.12
2023-04-05T21:01:50.948Z,1.16
2023-04-05T21:04:19.079Z,1.02
2023-04-05T21:06:47.546Z,1.00
2023-04-05T21:09:15.850Z,0.97
2023-04-05T21:11:43.743Z,1.02
2023-04-05T21:14:11.806Z,0.98
2023-04-05T21:16:39.877Z,0.99
2023-04-05T21:19:08.118Z,0.90
2023-04-05T21:21:36.433Z,0.92
2023-04-05T21:24:04.753Z,0.98
2023-04-05T21:26:32.912Z,0.96
2023-04-05T21:29:01.022Z,1.00
2023-04-05T21:31:29.063Z,1.01
2023-04-05T21:33:57.097Z,0.82
2023-04-05T21:36:25.108Z,1.04
2023-04-05T21:38:53.071Z,1.11
2023-04-05T21:41:21.438Z,1.17
2023-04-05T21:43:49.305Z,1.10
2023-04-05T21:46:19.410Z,0.93
2023-04-05T21:48:48.865Z,1.00
2023-04-05T21:51:16.875Z,1.05
2023-04-05T21:53:45.102Z,0.96
2023-04-05T21:56:13.089Z,1.03
2023-04-05T21:58:42.437Z,1.04
2023-04-05T22:01:10.422Z,1.00
2023-04-05T22:03:38.789Z,0.99
2023-04-05T22:06:07.018Z,0.97
2023-04-05T22:08:35.352Z,0.85
2023-04-05T22:11:03.509Z,0.86
2023-04-05T22:13:31.788Z,0.92
2023-04-05T22:15:59.929Z,0.94
2023-04-05T22:18:29.147Z,0.76
2023-04-05T22:20:57.113Z,0.92
2023-04-05T22:23:25.378Z,0.94
2023-04-05T22:25:53.583Z,0.93
2023-04-05T22:28:22.492Z,0.84
2023-04-05T22:30:50.996Z,0.86
2023-04-05T22:33:19.135Z,0.90
2023-04-05T22:35:47.292Z,0.98
2023-04-05T22:38:15.766Z,0.97
2023-04-05T22:40:45.558Z,0.82
2023-04-05T22:43:13.828Z,0.90
2023-04-05T22:45:41.772Z,0.88
2023-04-05T22:48:10.024Z,0.87
2023-04-05T22:50:38.053Z,0.85
2023-04-05T22:53:06.464Z,0.85
2023-04-05T22:55:34.550Z,0.73
2023-04-05T22:58:02.675Z,0.70
2023-04-05T23:00:30.841Z,0.70
2023-04-05T23:02:59.332Z,0.69
2023-04-05T23:05:27.538Z,0.79
2023-04-05T23:19:20.849Z,-0.04
2023-04-05T23:21:49.373Z,-0.15
2023-04-05T23:24:17.450Z,-0.02
2023-04-05T23:26:45.374Z,0.17
2023-04-05T23:29:13.386Z,0.18
2023-04-05T23:31:41.566Z,0.23
2023-04-05T23:34:09.499Z,0.31
2023-04-05T23:36:38.186Z,0.35
2023-04-05T23:39:07.017Z,0.45
2023-04-05T23:41:35.091Z,0.49
2023-04-05T23:44:03.026Z,0.50
2023-04-05T23:46:31.200Z,0.54
2023-04-05T23:48:59.323Z,0.54
2023-04-05T23:51:27.401Z,0.44
2023-04-05T23:53:55.510Z,0.55
2023-04-05T23:56:23.378Z,0.39
2023-04-05T23:58:51.625Z,0.42
